createdAt,value
2022-08-23T00:00:33.404Z,11.15
2022-08-23T00:05:42.867Z,11.88
2022-08-23T00:10:46.194Z,10.88
2022-08-23T00:15:50.499Z,12.18
2022-08-23T00:20:55.192Z,12.00
2022-08-23T00:25:58.568Z,12.38
2022-08-23T00:31:02.834Z,11.93
2022-08-23T00:36:07.975Z,12.77
2022-08-23T00:41:11.339Z,12.50
2022-08-23T00:46:41.327Z,12.55
2022-08-23T00:51:53.666Z,12.88
2022-08-23T00:57:01.167Z,11.43
2022-08-23T01:02:05.459Z,12.95
2022-08-23T01:07:16.951Z,12.25
2022-08-23T01:12:32.779Z,12.27
2022-08-23T01:17:43.749Z,12.65
2022-08-23T01:22:55.476Z,12.27
2022-08-23T01:28:00.846Z,11.95
2022-08-23T01:33:08.534Z,11.90
2022-08-23T01:38:13.643Z,12.63
2022-08-23T01:43:21.429Z,11.20
2022-08-23T01:48:25.605Z,12.90
2022-08-23T01:53:28.940Z,11.35
2022-08-23T01:58:34.758Z,10.55
2022-08-23T02:03:38.978Z,8.88
2022-08-23T02:09:00.459Z,10.10
2022-08-23T02:14:08.967Z,9.35
2022-08-23T02:19:15.512Z,10.35
2022-08-23T02:24:21.569Z,8.95
2022-08-23T02:29:29.655Z,8.73
2022-08-23T02:34:33.562Z,8.48
2022-08-23T02:39:38.958Z,8.57
2022-08-23T02:44:43.869Z,8.25
2022-08-23T02:49:47.515Z,8.23
2022-08-23T02:54:50.981Z,8.65
2022-08-23T02:59:58.034Z,8.52
2022-08-23T03:05:01.507Z,7.40
2022-08-23T03:10:06.475Z,7.32
2022-08-23T03:15:12.720Z,8.07
2022-08-23T03:20:16.558Z,7.00
2022-08-23T03:25:20.381Z,6.85
2022-08-23T03:30:25.274Z,6.80
2022-08-23T03:35:28.924Z,6.80
2022-08-23T03:40:32.548Z,7.25
2022-08-23T03:45:37.456Z,7.20
2022-08-23T03:50:40.855Z,7.10
2022-08-23T03:55:44.787Z,6.78
2022-08-23T04:00:49.825Z,6.90
2022-08-23T04:05:53.146Z,7.85
2022-08-23T04:10:56.689Z,8.43
2022-08-23T04:16:03.350Z,7.60
2022-08-23T04:21:11.099Z,6.97
2022-08-23T04:26:14.810Z,6.88
2022-08-23T04:31:22.375Z,6.97
2022-08-23T04:36:26.305Z,6.68
2022-08-23T04:41:49.189Z,7.43
2022-08-23T04:46:54.095Z,6.80
2022-08-23T04:51:57.536Z,6.57
2022-08-23T04:57:01.056Z,6.10
2022-08-23T05:02:06.084Z,6.07
2022-08-23T05:07:09.764Z,6.65
2022-08-23T05:12:13.125Z,6.78
2022-08-23T05:17:18.629Z,6.60
2022-08-23T05:22:22.003Z,6.47
2022-08-23T05:27:25.384Z,6.80
2022-08-23T05:32:33.367Z,6.53
2022-08-23T05:37:37.376Z,6.43
2022-08-23T05:42:43.419Z,6.45
2022-08-23T05:47:49.813Z,5.85
2022-08-23T05:52:53.456Z,6.93
2022-08-23T05:57:56.841Z,6.60
2022-08-23T06:03:01.875Z,7.50
2022-08-23T06:08:05.898Z,7.72
2022-08-23T06:13:09.238Z,7.20
2022-08-23T06:18:14.477Z,7.57
2022-08-23T06:23:17.785Z,8.43
2022-08-23T06:28:25.690Z,9.07
2022-08-23T06:33:31.139Z,9.75
2022-08-23T06:38:35.518Z,10.93
2022-08-23T06:43:40.544Z,9.90
2022-08-23T06:48:47.204Z,9.98
2022-08-23T06:53:51.703Z,10.40
2022-08-23T06:58:55.969Z,10.52
2022-08-23T07:04:02.132Z,10.65
2022-08-23T07:09:06.799Z,10.30
2022-08-23T07:14:12.668Z,11.40
2022-08-23T07:19:18.355Z,11.18
2022-08-23T07:24:24.229Z,11.48
2022-08-23T07:29:27.753Z,11.15
2022-08-23T07:34:33.171Z,10.77
2022-08-23T07:39:36.612Z,11.27
2022-08-23T07:44:40.160Z,11.15
2022-08-23T07:49:44.958Z,10.70
2022-08-23T07:54:49.571Z,10.90
2022-08-23T07:59:53.181Z,12.60
2022-08-23T08:04:57.959Z,11.50
2022-08-23T08:10:01.565Z,12.50
2022-08-23T08:15:05.796Z,11.70
2022-08-23T08:20:11.404Z,12.35
2022-08-23T08:25:15.849Z,13.88
2022-08-23T08:30:19.608Z,11.93
2022-08-23T08:35:24.685Z,13.27
2022-08-23T08:40:32.619Z,16.08
2022-08-23T08:45:57.590Z,13.90
2022-08-23T08:51:18.196Z,16.15
2022-08-23T08:56:32.413Z,14.60
2022-08-23T09:01:39.030Z,17.23
2022-08-23T09:06:54.312Z,14.32
2022-08-23T09:12:07.058Z,11.85
2022-08-23T09:17:20.912Z,11.88
2022-08-23T09:22:33.136Z,13.07
2022-08-23T09:27:37.676Z,12.23
2022-08-23T09:32:44.048Z,13.27
2022-08-23T09:37:58.424Z,15.45
2022-08-23T09:43:14.200Z,13.95
2022-08-23T09:48:34.506Z,12.57
2022-08-23T09:53:40.938Z,10.85
2022-08-23T09:58:50.612Z,11.45
2022-08-23T10:04:14.603Z,14.02
2022-08-23T10:09:28.218Z,11.60
2022-08-23T10:14:32.993Z,12.05
2022-08-23T10:19:47.953Z,11.85
2022-08-23T10:25:00.899Z,12.07
2022-08-23T10:30:08.557Z,11.60
2022-08-23T10:35:27.329Z,11.15
2022-08-23T10:40:39.925Z,11.20
2022-08-23T10:45:47.623Z,10.85
2022-08-23T10:50:58.917Z,10.52
2022-08-23T10:56:07.551Z,10.43
2022-08-23T11:01:16.016Z,9.93
2022-08-23T11:06:51.302Z,9.98
2022-08-23T11:12:17.705Z,8.77
2022-08-23T11:17:35.531Z,9.55
2022-08-23T11:23:15.002Z,9.15
2022-08-23T11:28:43.797Z,8.77
2022-08-23T11:33:52.415Z,8.40
2022-08-23T11:39:07.123Z,9.02
2022-08-23T11:44:29.842Z,8.38
2022-08-23T11:55:05.783Z,9.13
2022-08-23T12:00:26.932Z,9.13
2022-08-23T12:06:09.579Z,11.52
2022-08-23T12:11:18.266Z,11.30
2022-08-23T12:16:36.372Z,11.63
2022-08-23T12:21:48.785Z,11.68
2022-08-23T12:27:01.615Z,11.68
2022-08-23T12:32:12.900Z,14.10
2022-08-23T12:37:26.416Z,14.52
2022-08-23T12:42:33.370Z,14.75
2022-08-23T12:47:42.762Z,16.40
2022-08-23T12:52:59.007Z,15.35
2022-08-23T12:58:03.505Z,16.92
2022-08-23T13:03:16.966Z,15.88
2022-08-23T13:08:27.451Z,16.00
2022-08-23T13:13:40.558Z,16.13
2022-08-23T13:18:46.834Z,15.15
2022-08-23T13:23:50.888Z,14.43
2022-08-23T13:29:14.471Z,14.13
2022-08-23T13:34:47.178Z,14.70
2022-08-23T13:39:57.051Z,15.20
2022-08-23T13:45:08.442Z,14.02
2022-08-23T13:50:19.111Z,16.63
2022-08-23T13:55:22.811Z,15.43
2022-08-23T14:00:27.349Z,17.92
2022-08-23T14:05:33.047Z,16.38
2022-08-23T14:10:37.004Z,17.15
2022-08-23T14:15:58.826Z,17.05
2022-08-23T14:21:07.737Z,18.60
2022-08-23T14:26:15.163Z,17.33
2022-08-23T14:31:19.851Z,18.42
2022-08-23T14:36:25.202Z,18.85
2022-08-23T14:41:33.707Z,18.55
2022-08-23T14:46:37.387Z,20.40
2022-08-23T14:51:46.187Z,19.02
2022-08-23T14:56:50.898Z,20.48
2022-08-23T15:01:55.848Z,20.02
2022-08-23T15:07:17.843Z,20.70
2022-08-23T15:17:52.209Z,19.95
2022-08-23T15:22:57.287Z,21.08
2022-08-23T15:28:02.080Z,19.40
2022-08-23T15:33:06.631Z,18.13
2022-08-23T15:38:16.358Z,20.10
2022-08-23T15:43:20.405Z,19.85
2022-08-23T15:48:26.953Z,20.52
2022-08-23T15:53:31.829Z,19.42
2022-08-23T15:58:35.376Z,19.73
2022-08-23T16:03:42.425Z,17.83
2022-08-23T16:08:50.846Z,19.13
2022-08-23T16:13:55.393Z,17.73
2022-08-23T16:19:00.202Z,17.30
2022-08-23T16:24:06.676Z,18.33
2022-08-23T16:29:13.399Z,17.92
2022-08-23T16:34:19.147Z,16.05
2022-08-23T16:39:24.254Z,13.85
2022-08-23T16:44:27.937Z,14.57
2022-08-23T16:49:33.543Z,12.07
2022-08-23T16:54:38.558Z,13.18
2022-08-23T16:59:41.961Z,12.13
2022-08-23T17:04:48.657Z,13.18
2022-08-23T17:09:55.589Z,12.55
2022-08-23T17:14:59.253Z,13.20
2022-08-23T17:20:03.133Z,12.20
2022-08-23T17:25:12.477Z,11.93
2022-08-23T17:30:18.381Z,11.15
2022-08-23T17:35:25.302Z,12.43
2022-08-23T17:40:32.241Z,12.65
2022-08-23T17:45:41.762Z,14.30
2022-08-23T17:50:46.265Z,14.30
2022-08-23T17:55:51.250Z,14.90
2022-08-23T18:00:54.958Z,13.07
2022-08-23T18:05:59.273Z,14.23
2022-08-23T18:11:04.234Z,14.18
2022-08-23T18:16:08.549Z,15.50
2022-08-23T18:21:13.099Z,14.60
2022-08-23T18:26:31.732Z,14.60
2022-08-23T18:31:35.526Z,13.10
2022-08-23T18:36:39.388Z,14.10
2022-08-23T18:41:44.875Z,14.02
2022-08-23T18:46:49.093Z,15.77
2022-08-23T18:51:52.595Z,15.23
2022-08-23T18:56:57.396Z,14.13
2022-08-23T19:02:01.666Z,14.35
2022-08-23T19:07:05.760Z,14.82
2022-08-23T19:12:10.914Z,14.65
2022-08-23T19:17:14.271Z,14.40
2022-08-23T19:22:17.938Z,16.00
2022-08-23T19:27:22.826Z,14.55
2022-08-23T19:32:26.392Z,15.50
2022-08-23T19:37:29.937Z,14.30
2022-08-23T19:42:37.099Z,14.85
2022-08-23T19:47:41.329Z,15.18
2022-08-23T19:52:44.951Z,14.65
2022-08-23T19:57:54.530Z,15.13
2022-08-23T20:02:58.885Z,16.75
2022-08-23T20:08:03.343Z,14.35
2022-08-23T20:13:08.265Z,14.10
2022-08-23T20:18:12.025Z,15.32
2022-08-23T20:23:32.953Z,15.38
2022-08-23T20:28:38.087Z,14.57
2022-08-23T20:33:59.284Z,15.37
2022-08-23T20:39:02.907Z,16.00
2022-08-23T20:44:08.690Z,15.57
2022-08-23T20:49:12.647Z,14.73
2022-08-23T20:54:16.245Z,14.15
2022-08-23T20:59:21.669Z,15.50
2022-08-23T21:04:30.269Z,15.27
2022-08-23T21:09:34.482Z,15.15
2022-08-23T21:14:39.189Z,15.50
2022-08-23T21:19:44.233Z,15.98
2022-08-23T21:24:49.941Z,14.90
2022-08-23T21:29:54.950Z,15.70
2022-08-23T21:34:59.511Z,16.58
2022-08-23T21:40:03.476Z,15.48
2022-08-23T21:45:10.271Z,15.45
2022-08-23T21:50:14.249Z,17.25
2022-08-23T21:55:17.786Z,16.73
2022-08-23T22:00:22.775Z,17.90
2022-08-23T22:05:26.607Z,19.48
2022-08-23T22:10:30.303Z,18.60
2022-08-23T22:15:36.022Z,20.02
2022-08-23T22:20:40.072Z,20.88
2022-08-23T22:25:43.640Z,21.48
2022-08-23T22:30:48.430Z,20.95
2022-08-23T22:35:52.069Z,22.33
2022-08-23T22:40:55.548Z,23.27
2022-08-23T22:46:02.028Z,23.77
2022-08-23T22:51:09.011Z,23.15
2022-08-23T22:56:15.201Z,24.65
2022-08-23T23:01:22.443Z,26.33
2022-08-23T23:06:26.732Z,25.20
2022-08-23T23:11:30.436Z,24.20
2022-08-23T23:16:35.341Z,25.85
2022-08-23T23:21:42.199Z,26.25
2022-08-23T23:26:47.831Z,26.38
2022-08-23T23:31:53.117Z,27.20
2022-08-23T23:36:57.407Z,25.63
2022-08-23T23:42:00.725Z,28.00
2022-08-23T23:47:05.646Z,29.13
2022-08-23T23:52:08.983Z,27.83
2022-08-23T23:57:12.565Z,28.30
